Rockdale, TX

11:50 AM CDT on July 29, 2016 (GMT -0500)
KTXROCKD4 | | Change Station

Elev 500 ft 30.56 °N, 97.07 °W | Updated 4 minutes ago

Scattered Clouds
Scattered Clouds
89.2 °F
Feels Like 101 °F
N
2.0
Wind Variable Wind from SW
Gusts 5.0 mph

Today
High -- | Low -- °F
--% Chance of Precip.
Yesterday
High -- | Low -- °F
Precip. -- in
Pressure 30.07 in
Visibility 10.0 miles
Clouds Scattered Clouds 2400 ft
Scattered Clouds 2900 ft
Heat Index 101 °F
Dew Point 76 °F
Humidity 65%
Rainfall 0.00 in
Snow Depth Not available.
6:44 AM 8:24 PM
Waning Crescent, 20% visible
METAR KT35 291635Z AUTO 21004KT 10SM SCT024 SCT029 30/23 A3007 RMK AO2 T02950231
Pressure 30.07 in
Visibility 10.0 miles
Clouds Scattered Clouds 2400 ft
Scattered Clouds 2900 ft
Heat Index 101 °F
Dew Point 76 °F
Humidity 65%
Rainfall 0.00 in
Snow Depth Not available.
6:44 AM 8:24 PM
Waning Crescent, 20% visible
METAR KT35 291635Z AUTO 21004KT 10SM SCT024 SCT029 30/23 A3007 RMK AO2 T02950231

10-Day Weather Forecast

Almanac

Astronomy

Jul. 29, 2016 Rise Set
Actual Time
Civil Twilight
Nautical Twilight
Astronomical Twilight
Moon
Length of Visible Light
Length of Day
Tomorrow will be .
, % of the Moon is Illuminated

Today's Extremes

State Highs State Lows

Community

WunderPhotos

Upload Photos

1,928,378 photos uploaded!

WunderBlog® & News

Nearby

Air Quality

  Air Quality AQ Index Pollutant
Not available.

Snow Depth

Station Depth Elevation

Earthquake Activity

City Distance Mag. Time & Date
Minimum magnitude displayed is 2.5.

Coastal Water Temperatures

Place Temperature

Stations

Nearby Weather Stations

Station Location Temp. Windchill Dew Point Humidity Wind Precip. Elev Updated Type
                   

Watches & Warnings

There are currently no watches in effect.